Time;durP1;ratioP1;P1;durP2;ratioP2;P2;SDS_P1;SDS_P2;PMS_P1;PMS_P2;Temp;Humidity;BMP_temperature;BMP_pressure;BME280_temperature;BME280_humidity;BME280_pressure;Samples;Min_cycle;Max_cycle;Signal;HPM_P1;HPM_P2
2023/03/06 00:00:22;;;;;;;;;35.67;31.67;;;;;-1.51;100.00;97512.41;4798340;29;104053;-67
2023/03/06 00:02:49;;;;;;;;;37.33;33.67;;;;;-1.54;99.46;97520.69;4795606;29;103797;-67
2023/03/06 00:05:18;;;;;;;;;24.33;22.33;;;;;-1.54;100.00;97512.72;4794505;29;108169;-66
2023/03/06 00:07:45;;;;;;;;;33.33;24.67;;;;;-1.54;99.80;97512.72;4800683;29;102321;-67
2023/03/06 00:10:20;;;;;;;;;32.33;26.00;;;;;-1.57;99.59;97515.66;4801796;29;103907;-66
2023/03/06 00:12:49;;;;;;;;;22.33;19.67;;;;;-1.46;100.00;97510.13;4797143;29;102400;-67
2023/03/06 00:15:16;;;;;;;;;19.67;16.00;;;;;-1.44;99.51;97516.94;4798558;29;102218;-67
2023/03/06 00:17:43;;;;;;;;;11.00;8.67;;;;;-1.40;99.04;97507.69;4800679;29;102020;-67
2023/03/06 00:20:12;;;;;;;;;10.00;10.00;;;;;-1.50;99.55;97479.63;4800133;29;108624;-67
2023/03/06 00:22:39;;;;;;;;;2.33;1.67;;;;;-1.34;99.34;97498.31;4798185;29;102315;-67
2023/03/06 00:25:11;;;;;;;;;4.67;4.00;;;;;-1.32;99.70;97504.28;4800709;29;101917;-67
2023/03/06 00:27:38;;;;;;;;;4.00;4.00;;;;;-1.31;98.12;97491.88;4798406;29;102266;-67
2023/03/06 00:30:06;;;;;;;;;4.00;2.00;;;;;-1.42;98.18;97474.38;4798417;29;104233;-67
2023/03/06 00:32:33;;;;;;;;;2.00;2.00;;;;;-1.30;99.17;97491.69;4803049;29;102369;-67
2023/03/06 00:35:00;;;;;;;;;1.67;1.00;;;;;-1.31;98.19;97491.88;4789802;29;102183;-68
2023/03/06 00:37:27;;;;;;;;;2.00;2.00;;;;;-1.31;97.88;97498.00;4798841;29;103126;-67
2023/03/06 00:39:54;;;;;;;;;4.00;4.00;;;;;-1.32;98.07;97493.69;4799879;29;103972;-68
2023/03/06 00:42:21;;;;;;;;;4.00;2.00;;;;;-1.41;97.98;97478.72;4799114;29;102345;-67
2023/03/06 00:44:48;;;;;;;;;4.00;2.00;;;;;-1.33;98.46;97494.66;4799046;29;102263;-67
2023/03/06 00:47:16;;;;;;;;;4.00;4.00;;;;;-1.41;98.26;97478.72;4803822;29;102386;-69
2023/03/06 00:49:44;;;;;;;;;8.00;5.00;;;;;-1.36;98.63;97497.63;4800243;29;104024;-68
2023/03/06 00:52:12;;;;;;;;;11.33;8.67;;;;;-1.36;98.66;97498.47;4795736;29;102798;-66
2023/03/06 00:54:39;;;;;;;;;21.00;11.00;;;;;-1.39;97.99;97493.47;4796828;29;102121;-66
2023/03/06 00:57:07;;;;;;;;;20.67;17.00;;;;;-1.41;98.65;97494.63;4785035;29;102540;-68
2023/03/06 00:59:34;;;;;;;;;21.67;14.33;;;;;-1.44;98.63;97490.44;4791623;29;103932;-67
2023/03/06 01:02:02;;;;;;;;;12.00;11.00;;;;;-1.45;97.81;97498.56;4805181;29;104565;-66
2023/03/06 01:04:29;;;;;;;;;20.00;17.00;;;;;-1.45;98.83;97496.75;4792644;29;101961;-67
2023/03/06 01:06:56;;;;;;;;;18.00;12.67;;;;;-1.46;98.44;97500.38;4804772;29;102095;-67
2023/03/06 01:09:23;;;;;;;;;19.33;13.33;;;;;-1.45;99.36;97495.91;4801238;29;104010;-67
2023/03/06 01:11:51;;;;;;;;;14.67;11.00;;;;;-1.47;98.33;97489.91;4795513;29;104859;-68
2023/03/06 01:14:19;;;;;;;;;10.00;5.67;;;;;-1.50;98.52;97488.41;4797297;29;103461;-68
2023/03/06 01:16:47;;;;;;;;;13.00;7.33;;;;;-1.49;98.97;97497.19;4798078;29;102034;-68
2023/03/06 01:19:15;;;;;;;;;12.67;7.33;;;;;-1.56;98.02;97491.66;4801444;29;104069;-67
2023/03/06 01:21:42;;;;;;;;;10.00;7.00;;;;;-1.48;98.37;97504.16;4804469;29;102300;-68
2023/03/06 01:24:10;;;;;;;;;7.33;7.00;;;;;-1.47;99.54;97504.00;4793968;28;102064;-68
2023/03/06 01:26:37;;;;;;;;;4.00;4.00;;;;;-1.47;99.59;97503.16;4801951;28;103576;-68
2023/03/06 01:29:05;;;;;;;;;9.67;6.33;;;;;-1.47;98.48;97505.81;4801339;29;103142;-66
2023/03/06 01:31:32;;;;;;;;;5.00;4.00;;;;;-1.47;99.00;97506.66;4801407;28;102355;-67
2023/03/06 01:34:01;;;;;;;;;7.00;5.00;;;;;-1.46;99.42;97512.78;4804081;29;104403;-67
2023/03/06 01:36:29;;;;;;;;;7.33;5.00;;;;;-1.49;98.41;97500.69;4802979;29;102456;-67
2023/03/06 01:38:56;;;;;;;;;6.67;6.33;;;;;-1.53;98.23;97504.59;4800842;28;104103;-67
2023/03/06 01:41:23;;;;;;;;;7.33;5.67;;;;;-1.53;99.95;97498.50;4800251;29;102190;-68
2023/03/06 01:43:51;;;;;;;;;9.00;7.00;;;;;-1.55;98.58;97496.00;4803254;29;101983;-67
2023/03/06 01:46:32;;;;;;;;;8.00;7.67;;;;;-1.57;98.32;97505.06;4803230;29;102446;-67
2023/03/06 01:48:59;;;;;;;;;6.33;4.67;;;;;-1.56;98.97;97496.13;4815671;28;103211;-67
2023/03/06 01:51:39;;;;;;;;;6.00;6.00;;;;;-1.56;98.32;97490.84;4802059;29;102290;-67
2023/03/06 01:54:12;;;;;;;;;4.00;2.00;;;;;-1.59;99.08;97484.03;4802629;29;102187;-67
2023/03/06 01:56:43;;;;;;;;;7.33;5.00;;;;;-1.62;98.45;97489.63;4803512;29;102138;-67
2023/03/06 01:59:11;;;;;;;;;1.00;1.00;;;;;-1.70;97.71;97484.25;4796023;29;108751;-67
2023/03/06 02:01:39;;;;;;;;;4.00;2.00;;;;;-1.78;98.22;97486.84;4794062;29;103494;-68
2023/03/06 02:04:07;;;;;;;;;4.33;4.33;;;;;-1.81;97.74;97479.19;4794473;29;102435;-68
2023/03/06 02:06:49;;;;;;;;;5.33;1.67;;;;;-1.82;98.88;97480.19;4795803;29;101978;-68
2023/03/06 02:09:33;;;;;;;;;2.00;1.67;;;;;-1.85;98.58;97476.00;4798597;29;108425;-68
2023/03/06 02:12:27;;;;;;;;;0.00;0.00;;;;;-1.84;98.76;97476.84;4795722;29;102347;-69
2023/03/06 02:15:26;;;;;;;;;2.67;1.00;;;;;-1.84;99.33;97472.38;4797667;29;102064;-67
2023/03/06 02:18:06;;;;;;;;;4.33;2.67;;;;;-1.79;99.15;97469.25;4799549;29;103008;-67
2023/03/06 02:21:22;;;;;;;;;4.00;4.00;;;;;-1.74;99.80;97477.59;4798242;29;109333;-74
2023/03/06 02:24:32;;;;;;;;;2.00;1.33;;;;;-1.68;98.42;97469.03;4800630;29;102289;-68
2023/03/06 02:27:01;;;;;;;;;8.00;7.00;;;;;-1.64;98.82;97466.91;4799899;29;101973;-69
2023/03/06 02:29:30;;;;;;;;;2.67;2.00;;;;;-1.67;98.46;97456.63;4803127;29;102304;-66
2023/03/06 02:31:57;;;;;;;;;5.00;4.00;;;;;-1.57;98.99;97460.00;4800674;29;104043;-66
2023/03/06 02:34:24;;;;;;;;;1.00;1.00;;;;;-1.54;99.72;97454.41;4800920;29;102611;-67
2023/03/06 02:36:54;;;;;;;;;4.33;2.00;;;;;-1.50;98.61;97450.47;4801195;29;104828;-67
2023/03/06 02:39:26;;;;;;;;;4.00;2.00;;;;;-1.49;99.66;97455.63;4802895;29;102364;-67
2023/03/06 02:41:53;;;;;;;;;9.33;8.00;;;;;-1.48;98.93;97457.28;4783752;29;104043;-68
2023/03/06 02:44:22;;;;;;;;;17.33;13.33;;;;;-1.44;99.34;97469.22;4800424;29;102224;-67
2023/03/06 02:46:49;;;;;;;;;9.00;9.00;;;;;-1.40;100.00;97454.66;4800926;29;102521;-67
2023/03/06 02:49:16;;;;;;;;;14.33;10.33;;;;;-1.36;99.67;97457.88;4799757;29;105613;-67
2023/03/06 02:51:43;;;;;;;;;7.00;7.00;;;;;-1.29;100.00;97456.25;4798579;29;108574;-68
2023/03/06 02:54:10;;;;;;;;;14.00;8.00;;;;;-1.25;100.00;97459.41;4800624;29;102403;-67
2023/03/06 02:56:37;;;;;;;;;11.33;9.00;;;;;-1.21;100.00;97463.41;4800031;29;102389;-67
2023/03/06 02:59:04;;;;;;;;;10.33;9.00;;;;;-1.18;100.00;97457.81;4802135;29;102080;-67
2023/03/06 03:01:31;;;;;;;;;8.33;7.00;;;;;-1.14;100.00;97457.34;4797511;29;104029;-68
2023/03/06 03:03:58;;;;;;;;;9.67;8.00;;;;;-1.11;100.00;97454.38;4800622;29;102299;-67
2023/03/06 03:06:25;;;;;;;;;12.67;10.00;;;;;-1.08;99.97;97455.91;4799398;28;102059;-68
2023/03/06 03:08:51;;;;;;;;;10.33;6.33;;;;;-1.05;100.00;97450.28;4806594;29;102086;-68
2023/03/06 03:11:18;;;;;;;;;7.67;7.33;;;;;-1.02;100.00;97457.91;4802411;29;103906;-68
2023/03/06 03:13:45;;;;;;;;;7.00;5.00;;;;;-0.99;99.96;97452.31;4803303;29;102130;-68
2023/03/06 03:16:17;;;;;;;;;10.33;7.00;;;;;-0.98;100.00;97452.13;4801453;29;102447;-68
2023/03/06 03:18:46;;;;;;;;;9.33;7.00;;;;;-0.96;99.86;97459.94;4802423;29;102160;-67
2023/03/06 03:21:14;;;;;;;;;7.00;5.00;;;;;-0.94;100.00;97461.44;4794538;29;108607;-68
2023/03/06 03:23:41;;;;;;;;;3.00;2.00;;;;;-0.91;99.70;97457.66;4797803;29;102085;-67
2023/03/06 03:26:15;;;;;;;;;4.00;4.00;;;;;-0.91;99.83;97455.84;4800934;29;102187;-68
2023/03/06 03:28:42;;;;;;;;;8.00;6.00;;;;;-0.90;99.28;97457.47;4799961;29;102756;-68
2023/03/06 03:31:10;;;;;;;;;7.67;7.67;;;;;-0.88;99.33;97443.22;4800655;29;104030;-68
2023/03/06 03:33:38;;;;;;;;;7.00;4.33;;;;;-0.86;98.88;97443.94;4800514;29;102084;-67
2023/03/06 03:36:06;;;;;;;;;5.00;4.00;;;;;-0.86;99.85;97435.97;4806871;29;102095;-67
2023/03/06 03:38:34;;;;;;;;;8.00;5.00;;;;;-0.86;99.47;97438.63;4798282;29;102044;-67
2023/03/06 03:41:01;;;;;;;;;7.00;5.67;;;;;-0.86;98.43;97430.66;4793850;29;104053;-68
2023/03/06 03:43:29;;;;;;;;;6.67;5.67;;;;;-0.86;99.17;97434.16;4800814;29;102435;-67
2023/03/06 03:45:56;;;;;;;;;8.00;7.33;;;;;-0.88;99.10;97432.63;4803452;29;104342;-67
2023/03/06 03:48:22;;;;;;;;;5.00;2.00;;;;;-0.87;99.50;97432.47;4801687;29;102112;-67
2023/03/06 03:50:50;;;;;;;;;4.67;2.67;;;;;-0.87;99.48;97429.81;4801285;29;104026;-68
2023/03/06 03:53:16;;;;;;;;;4.00;4.00;;;;;-0.87;99.45;97429.81;4800256;29;104353;-68
2023/03/06 03:55:46;;;;;;;;;4.67;4.00;;;;;-0.88;98.78;97425.50;4798630;29;102027;-68
2023/03/06 03:58:14;;;;;;;;;5.00;5.00;;;;;-0.92;97.96;97419.69;4802547;29;102060;-68
2023/03/06 04:00:41;;;;;;;;;4.00;4.00;;;;;-0.97;98.30;97423.78;4794668;29;104058;-68
2023/03/06 04:03:08;;;;;;;;;3.33;2.00;;;;;-1.26;98.66;97381.69;4802530;29;102396;-67
2023/03/06 04:05:35;;;;;;;;;10.33;8.00;;;;;-1.11;97.64;97411.94;4803948;29;102160;-67
2023/03/06 04:08:03;;;;;;;;;4.00;2.00;;;;;-1.19;98.48;97417.22;4798510;29;102569;-67
2023/03/06 04:10:30;;;;;;;;;3.33;1.00;;;;;-1.26;98.41;97418.81;4798538;29;104075;-68
2023/03/06 04:12:57;;;;;;;;;8.00;5.00;;;;;-1.35;97.54;97414.44;4797904;29;109430;-67
2023/03/06 04:15:24;;;;;;;;;8.00;5.00;;;;;-1.45;97.45;97411.91;4799052;29;102021;-67
2023/03/06 04:17:51;;;;;;;;;7.00;3.33;;;;;-1.58;97.05;97414.16;4798174;29;102051;-68
2023/03/06 04:20:18;;;;;;;;;5.00;4.00;;;;;-1.65;96.90;97420.19;4798146;29;103998;-68
2023/03/06 04:22:45;;;;;;;;;8.00;4.00;;;;;-1.75;98.72;97404.38;4801760;29;102335;-67
2023/03/06 04:25:12;;;;;;;;;4.67;4.67;;;;;-1.93;97.55;97395.63;4797449;29;102187;-67
2023/03/06 04:27:39;;;;;;;;;1.67;1.00;;;;;-1.92;99.05;97406.06;4800145;29;102325;-68
2023/03/06 04:30:07;;;;;;;;;4.67;2.67;;;;;-2.03;97.88;97405.50;4810294;29;104341;-67
2023/03/06 04:32:34;;;;;;;;;13.67;7.00;;;;;-2.17;98.04;97401.56;4800115;29;102339;-67
2023/03/06 04:35:01;;;;;;;;;10.00;8.00;;;;;-2.21;98.55;97405.50;4797045;29;102146;-68
2023/03/06 04:37:28;;;;;;;;;7.33;4.67;;;;;-2.26;98.77;97398.00;4799445;29;102069;-67
2023/03/06 04:39:56;;;;;;;;;7.00;4.00;;;;;-2.32;98.56;97401.25;4799140;29;104041;-68
2023/03/06 04:42:23;;;;;;;;;8.00;7.00;;;;;-2.41;99.47;97401.31;4800601;29;102694;-68
2023/03/06 04:44:50;;;;;;;;;18.33;13.67;;;;;-2.50;100.00;97402.22;4800590;29;103220;-68
2023/03/06 04:47:17;;;;;;;;;12.33;9.33;;;;;-2.51;100.00;97397.88;4805991;29;102381;-67
2023/03/06 04:49:45;;;;;;;;;8.33;7.00;;;;;-2.52;100.00;97402.34;4799948;29;108796;-67
2023/03/06 04:52:12;;;;;;;;;8.67;7.33;;;;;-2.50;100.00;97402.22;4802602;29;102687;-67
2023/03/06 04:54:39;;;;;;;;;7.33;5.00;;;;;-2.50;99.76;97396.91;4801047;29;102444;-68
2023/03/06 04:57:06;;;;;;;;;15.00;12.67;;;;;-2.64;100.00;97410.66;4805670;29;102166;-68
2023/03/06 04:59:33;;;;;;;;;21.33;18.33;;;;;-2.76;100.00;97391.50;4802927;29;104030;-69
2023/03/06 05:02:00;;;;;;;;;17.00;11.33;;;;;-2.67;100.00;97387.13;4800685;29;102860;-67
2023/03/06 05:04:27;;;;;;;;;24.33;18.33;;;;;-2.73;100.00;97399.97;4799244;29;102081;-67
2023/03/06 05:06:53;;;;;;;;;19.33;16.00;;;;;-2.67;100.00;97400.38;4802556;29;102202;-67
2023/03/06 05:09:20;;;;;;;;;19.67;12.33;;;;;-2.71;100.00;97376.03;4800163;29;103993;-67
2023/03/06 05:11:47;;;;;;;;;7.00;5.67;;;;;-2.52;100.00;97388.31;4805003;29;102323;-67
2023/03/06 05:14:14;;;;;;;;;16.00;10.00;;;;;-2.45;100.00;97386.72;4804395;29;102509;-67
2023/03/06 05:16:41;;;;;;;;;5.00;4.33;;;;;-2.38;100.00;97385.97;4801048;29;102610;-67
2023/03/06 05:19:08;;;;;;;;;8.00;5.00;;;;;-2.31;100.00;97384.38;4802565;29;104173;-69
2023/03/06 05:21:35;;;;;;;;;8.00;5.00;;;;;-2.24;100.00;97371.38;4800546;29;102479;-68
2023/03/06 05:24:02;;;;;;;;;5.00;2.67;;;;;-2.26;100.00;97362.75;4802755;29;102168;-67
2023/03/06 05:26:29;;;;;;;;;0.67;0.67;;;;;-2.10;100.00;97370.84;4803283;29;102053;-67
2023/03/06 05:28:56;;;;;;;;;2.67;2.00;;;;;-2.06;100.00;97374.84;4802148;29;104249;-68
2023/03/06 05:31:23;;;;;;;;;2.00;1.67;;;;;-2.00;100.00;97379.53;4802852;29;102543;-67
2023/03/06 05:33:50;;;;;;;;;4.00;4.00;;;;;-1.93;100.00;97377.91;4799326;29;102589;-72
2023/03/06 05:36:17;;;;;;;;;8.00;4.00;;;;;-1.86;100.00;97381.63;4805390;29;104062;-68
2023/03/06 05:38:44;;;;;;;;;6.33;4.00;;;;;-1.78;100.00;97374.72;4798581;29;104441;-68
2023/03/06 05:41:12;;;;;;;;;2.67;2.67;;;;;-1.70;100.00;97378.25;4800520;29;102375;-67
2023/03/06 05:43:39;;;;;;;;;8.00;7.33;;;;;-1.63;100.00;97373.19;4802294;29;103311;-68
2023/03/06 05:46:07;;;;;;;;;8.00;4.00;;;;;-1.56;100.00;97366.28;4806767;29;102076;-67
2023/03/06 05:48:35;;;;;;;;;9.67;4.00;;;;;-1.45;100.00;97371.31;4799051;29;104370;-67
2023/03/06 05:51:03;;;;;;;;;7.67;7.00;;;;;-1.34;100.00;97368.38;4801483;29;103321;-68
2023/03/06 05:53:30;;;;;;;;;4.00;2.00;;;;;-1.35;100.00;97345.50;4801048;28;103409;-68
2023/03/06 05:56:02;;;;;;;;;2.00;2.00;;;;;-1.08;100.00;97363.88;4804865;29;102314;-69
2023/03/06 05:58:31;;;;;;;;;4.33;4.00;;;;;-0.95;100.00;97366.94;4806445;28;103989;-67
2023/03/06 06:00:58;;;;;;;;;8.00;7.00;;;;;-0.83;99.78;97366.66;4808786;29;102420;-67
2023/03/06 06:03:25;;;;;;;;;10.67;5.67;;;;;-0.73;98.79;97362.88;4802490;29;101872;-68
2023/03/06 06:05:52;;;;;;;;;5.00;4.33;;;;;-0.61;98.73;97363.41;4798596;29;101957;-68
2023/03/06 06:08:20;;;;;;;;;10.00;8.00;;;;;-0.51;96.86;97364.09;4803913;29;104091;-68
2023/03/06 06:10:47;;;;;;;;;8.00;5.00;;;;;-0.42;96.69;97360.47;4801921;29;102919;-68
2023/03/06 06:13:17;;;;;;;;;8.00;6.00;;;;;-0.29;96.38;97368.78;4807536;29;102566;-68
2023/03/06 06:15:44;;;;;;;;;9.67;8.33;;;;;-0.19;95.04;97361.50;4809084;28;102061;-68
2023/03/06 06:18:11;;;;;;;;;13.33;8.00;;;;;-0.12;94.91;97362.50;4796839;29;103967;-67
2023/03/06 06:20:38;;;;;;;;;12.00;10.33;;;;;-0.05;93.86;97357.38;4802111;29;102396;-68
2023/03/06 06:23:05;;;;;;;;;16.33;15.00;;;;;-0.05;93.35;97358.22;4798124;29;102092;-69
2023/03/06 06:25:32;;;;;;;;;17.33;16.00;;;;;-0.04;92.84;97349.22;4802450;29;102139;-69
2023/03/06 06:27:59;;;;;;;;;12.67;11.33;;;;;0.12;93.19;97360.84;4803449;29;104017;-68
2023/03/06 06:30:27;;;;;;;;;11.00;8.67;;;;;0.18;92.60;97368.97;4800398;29;102374;-68
2023/03/06 06:32:54;;;;;;;;;15.33;15.00;;;;;0.24;91.21;97357.69;4804419;29;102302;-69
2023/03/06 06:35:21;;;;;;;;;20.67;16.00;;;;;0.15;91.38;97342.75;4808789;29;102258;-69
2023/03/06 06:37:48;;;;;;;;;16.67;15.33;;;;;0.35;90.90;97369.81;4795650;29;108785;-67
2023/03/06 06:40:15;;;;;;;;;34.00;24.00;;;;;0.33;91.20;97367.31;4796340;29;102451;-67
2023/03/06 06:42:43;;;;;;;;;25.33;20.00;;;;;0.38;90.24;97374.78;4796936;29;102217;-67
2023/03/06 06:45:11;;;;;;;;;23.67;18.67;;;;;0.47;90.03;97375.63;4798945;29;102200;-67
2023/03/06 06:47:42;;;;;;;;;23.00;18.33;;;;;0.56;90.11;97367.47;4801305;29;104024;-68
2023/03/06 06:50:14;;;;;;;;;31.00;20.67;;;;;0.62;89.96;97366.78;4803172;29;102533;-68
2023/03/06 06:52:41;;;;;;;;;22.33;18.67;;;;;0.75;90.00;97364.44;4797193;29;102076;-68
2023/03/06 06:55:09;;;;;;;;;16.67;16.00;;;;;0.87;89.57;97362.22;4800458;29;102202;-67
2023/03/06 06:57:36;;;;;;;;;24.33;20.00;;;;;0.99;88.27;97368.03;4788915;29;104979;-67
2023/03/06 07:00:04;;;;;;;;;15.33;14.00;;;;;1.13;88.47;97375.28;4800407;29;103478;-67
2023/03/06 07:02:31;;;;;;;;;15.00;12.67;;;;;1.26;87.21;97370.25;4800947;29;102280;-67
2023/03/06 07:04:58;;;;;;;;;16.00;12.67;;;;;1.38;86.68;97358.22;4799212;29;102072;-68
2023/03/06 07:07:33;;;;;;;;;12.00;12.00;;;;;1.52;85.83;97370.81;4800383;29;104040;-68
2023/03/06 07:10:01;;;;;;;;;13.67;12.00;;;;;1.56;85.42;97365.94;4801351;29;102023;-67
2023/03/06 07:12:31;;;;;;;;;16.67;15.00;;;;;1.60;84.94;97367.25;4799393;29;102067;-68
2023/03/06 07:14:58;;;;;;;;;19.67;15.67;;;;;1.67;85.42;97363.69;4801456;29;102313;-68
2023/03/06 07:17:25;;;;;;;;;21.67;17.67;;;;;1.73;85.15;97367.50;4797632;29;104011;-68
2023/03/06 07:19:52;;;;;;;;;20.00;14.67;;;;;1.82;84.55;97366.44;4802959;29;102572;-69
2023/03/06 07:22:19;;;;;;;;;19.33;17.33;;;;;1.92;84.11;97368.88;4805290;29;102031;-67
2023/03/06 07:24:45;;;;;;;;;21.33;20.00;;;;;2.10;83.69;97366.75;4801432;29;102399;-67
2023/03/06 07:27:12;;;;;;;;;25.25;21.25;;;;;2.25;83.26;97364.97;4799761;29;104136;-67
2023/03/06 07:29:42;;;;;;;;;19.25;15.75;;;;;2.37;82.65;97371.53;4797704;29;102047;-67
2023/03/06 07:32:10;;;;;;;;;23.00;18.00;;;;;2.42;80.67;97374.50;4800741;29;102255;-67
2023/03/06 07:34:37;;;;;;;;;19.50;14.25;;;;;2.59;80.95;97392.00;4801014;29;102838;-69
2023/03/06 07:37:04;;;;;;;;;16.00;14.25;;;;;2.80;79.84;97382.47;4773236;29;104223;-67
2023/03/06 07:39:31;;;;;;;;;14.25;9.00;;;;;2.79;78.60;97362.97;4799393;29;102757;-67
2023/03/06 07:41:58;;;;;;;;;17.25;13.25;;;;;3.01;79.74;97375.41;4799904;29;102036;-68
2023/03/06 07:44:25;;;;;;;;;18.75;13.25;;;;;3.33;77.64;97379.53;4797574;29;103467;-68
2023/03/06 07:46:52;;;;;;;;;10.00;10.00;;;;;3.58;76.80;97382.75;4800977;29;104127;-69
2023/03/06 07:49:19;;;;;;;;;15.25;12.50;;;;;3.88;77.24;97378.16;4803982;29;103819;-68
2023/03/06 07:51:46;;;;;;;;;10.00;8.25;;;;;3.93;75.02;97381.09;4798452;29;102087;-68
2023/03/06 07:54:13;;;;;;;;;8.25;6.75;;;;;3.96;75.25;97386.06;4802129;29;102279;-68
2023/03/06 07:56:40;;;;;;;;;11.50;10.00;;;;;3.81;73.82;97383.44;4813321;28;104186;-69
2023/03/06 07:59:08;;;;;;;;;10.75;8.25;;;;;3.75;75.72;97384.19;4801504;29;102205;-68
2023/03/06 08:01:38;;;;;;;;;13.75;11.00;;;;;3.56;73.73;97390.09;4797543;29;102460;-68
2023/03/06 08:04:06;;;;;;;;;9.75;8.00;;;;;3.65;75.00;97388.97;4795955;29;102296;-68
2023/03/06 08:06:33;;;;;;;;;7.00;6.00;;;;;3.65;75.33;97390.84;4798250;29;104068;-68
2023/03/06 08:09:00;;;;;;;;;10.25;7.00;;;;;3.68;74.92;97398.50;4799959;29;102188;-68
2023/03/06 08:11:29;;;;;;;;;8.75;8.75;;;;;3.58;75.53;97388.91;4799527;29;102298;-68
2023/03/06 08:13:57;;;;;;;;;6.25;3.50;;;;;3.39;74.59;97384.16;4802193;29;102336;-68
2023/03/06 08:16:27;;;;;;;;;8.00;7.00;;;;;3.54;75.83;97387.63;4799795;29;104463;-69
2023/03/06 08:18:55;;;;;;;;;10.50;7.00;;;;;3.60;75.04;97386.06;4800348;29;102070;-68
2023/03/06 08:21:25;;;;;;;;;6.25;6.00;;;;;3.71;75.13;97392.75;4798793;29;102135;-69
2023/03/06 08:23:52;;;;;;;;;6.00;5.25;;;;;3.74;73.57;97387.06;4804196;29;104093;-68
2023/03/06 08:26:22;;;;;;;;;6.25;6.25;;;;;3.76;74.20;97385.00;4782793;29;108173;-68
2023/03/06 08:28:53;;;;;;;;;9.00;8.50;;;;;3.63;74.54;97390.19;4796617;29;102149;-68
2023/03/06 08:31:29;;;;;;;;;8.25;6.00;;;;;3.75;73.73;97389.53;4800401;29;102173;-68
2023/03/06 08:33:59;;;;;;;;;17.25;11.00;;;;;3.77;74.52;97392.00;4796954;29;102270;-69
2023/03/06 08:36:29;;;;;;;;;10.50;9.50;;;;;3.82;73.21;97389.63;4796893;29;103050;-69
2023/03/06 08:38:58;;;;;;;;;5.00;3.00;;;;;4.05;73.38;97395.63;4803344;29;103057;-69
2023/03/06 08:41:25;;;;;;;;;9.50;6.00;;;;;4.16;72.40;97402.31;4785383;29;102269;-68
2023/03/06 08:43:53;;;;;;;;;8.00;7.50;;;;;4.24;71.36;97389.63;4798800;29;102218;-69
2023/03/06 08:46:23;;;;;;;;;10.00;7.25;;;;;4.53;71.86;97383.31;4800268;29;103658;-68
2023/03/06 08:48:50;;;;;;;;;6.00;3.25;;;;;4.79;70.45;97393.41;4793723;29;102403;-68
2023/03/06 08:51:19;;;;;;;;;5.50;5.50;;;;;5.03;70.28;97384.94;4795318;29;102795;-68
2023/03/06 08:53:46;;;;;;;;;5.00;4.75;;;;;5.47;67.63;97394.47;4798107;29;102902;-68
2023/03/06 08:56:22;;;;;;;;;6.25;4.25;;;;;5.54;66.77;97392.69;4797865;29;104005;-68
2023/03/06 08:58:49;;;;;;;;;6.00;6.00;;;;;5.60;67.53;97383.81;4797331;29;103861;-68
2023/03/06 09:01:22;;;;;;;;;9.50;6.00;;;;;5.67;66.84;97385.50;4793965;29;102437;-68
2023/03/06 09:03:52;;;;;;;;;7.75;6.00;;;;;5.72;65.88;97392.94;4787992;29;103460;-69
2023/03/06 09:06:19;;;;;;;;;12.00;10.75;;;;;5.76;65.22;97391.53;4791830;29;103787;-67
2023/03/06 09:08:46;;;;;;;;;8.50;7.00;;;;;5.59;65.75;97391.03;4790601;29;103606;-68
2023/03/06 09:11:15;;;;;;;;;11.00;7.50;;;;;5.52;66.31;97394.72;4797369;29;102405;-68
2023/03/06 09:13:43;;;;;;;;;9.00;8.00;;;;;5.48;66.46;97393.47;4796588;29;105458;-68
2023/03/06 09:16:11;;;;;;;;;8.00;6.00;;;;;5.32;66.83;97390.06;4794239;29;103325;-68
2023/03/06 09:18:39;;;;;;;;;11.50;8.75;;;;;5.24;66.82;97386.72;4795858;29;102327;-68
2023/03/06 09:21:06;;;;;;;;;8.25;8.25;;;;;5.09;66.64;97388.72;4797341;29;101897;-68
2023/03/06 09:23:35;;;;;;;;;10.75;10.25;;;;;5.03;68.45;97389.47;4798442;28;102410;-68
2023/03/06 09:26:02;;;;;;;;;11.25;10.00;;;;;4.98;67.54;97387.38;4811168;29;104006;-68
2023/03/06 09:28:29;;;;;;;;;10.00;7.25;;;;;5.00;68.63;97390.69;4799897;29;102375;-68
2023/03/06 09:30:57;;;;;;;;;12.00;9.75;;;;;4.99;69.01;97388.22;4797484;29;102572;-68
2023/03/06 09:33:24;;;;;;;;;10.00;8.50;;;;;4.92;66.81;97402.38;4803711;29;102875;-68
2023/03/06 09:35:57;;;;;;;;;14.00;12.00;;;;;4.80;67.53;97393.22;4802101;29;109003;-67
2023/03/06 09:38:26;;;;;;;;;13.00;12.00;;;;;4.77;68.37;97396.28;4799392;29;102788;-68
2023/03/06 09:40:57;;;;;;;;;23.50;16.75;;;;;4.78;69.25;97387.22;4796734;29;102298;-67
2023/03/06 09:54:33;;;;;;;;;21.50;17.00;;;;;4.98;67.23;97376.69;2655957;23;105129;-75
2023/03/06 09:57:02;;;;;;;;;15.75;14.25;;;;;5.03;67.33;97371.56;4831026;29;104005;-75
2023/03/06 09:59:31;;;;;;;;;10.50;7.00;;;;;5.16;67.83;97368.97;4833729;28;104211;-75
2023/03/06 10:02:36;;;;;;;;;11.50;9.00;;;;;5.23;68.22;97375.16;4839686;29;102392;-75
2023/03/06 10:05:09;;;;;;;;;9.00;8.25;;;;;5.27;67.08;97368.38;4833430;29;102363;-75
2023/03/06 10:07:48;;;;;;;;;6.25;6.00;;;;;5.49;67.10;97365.63;4829736;28;102988;-75
2023/03/06 10:10:25;;;;;;;;;12.25;11.00;;;;;5.55;66.26;97364.81;4841049;28;103141;-75
2023/03/06 10:13:05;;;;;;;;;10.75;9.00;;;;;5.53;64.50;97351.63;4841108;29;102072;-75
2023/03/06 10:15:35;;;;;;;;;11.00;10.00;;;;;5.72;64.87;97363.44;4837366;29;104880;-74
2023/03/06 10:18:03;;;;;;;;;8.00;7.00;;;;;5.89;64.65;97359.44;4842710;29;102129;-75
2023/03/06 10:20:39;;;;;;;;;7.75;6.50;;;;;6.01;63.94;97357.81;4835623;28;103348;-74
2023/03/06 10:23:40;;;;;;;;;6.50;6.50;;;;;6.18;63.32;97348.34;4843108;28;102070;-74
2023/03/06 10:26:10;;;;;;;;;7.00;7.00;;;;;6.06;62.63;97349.97;4838803;28;101907;-74
2023/03/06 10:28:45;;;;;;;;;6.00;4.50;;;;;6.03;61.11;97355.75;4840234;28;102321;-73
2023/03/06 10:31:27;;;;;;;;;9.25;8.00;;;;;6.19;61.94;97349.16;4834065;28;104254;-73
2023/03/06 10:34:05;;;;;;;;;10.75;9.50;;;;;6.15;61.46;97343.38;4839298;29;102000;-73
2023/03/06 10:36:32;;;;;;;;;7.75;6.75;;;;;6.15;61.87;97348.75;4838156;28;102066;-74
2023/03/06 10:38:59;;;;;;;;;7.00;6.00;;;;;6.06;61.62;97339.25;4837155;28;102821;-73
2023/03/06 10:41:29;;;;;;;;;6.50;4.50;;;;;6.04;61.72;97335.09;4836154;29;103248;-72
2023/03/06 10:44:18;;;;;;;;;5.50;4.00;;;;;6.23;63.18;97340.50;4837144;28;104086;-72
2023/03/06 10:46:48;;;;;;;;;3.75;3.75;;;;;6.22;62.98;97344.22;4834677;28;102499;-73
2023/03/06 10:49:33;;;;;;;;;5.50;4.00;;;;;6.33;62.21;97340.09;4839285;29;102272;-73
2023/03/06 10:52:05;;;;;;;;;6.75;4.00;;;;;6.38;59.53;97334.13;4836720;28;108351;-73
2023/03/06 10:54:39;;;;;;;;;2.75;2.75;;;;;6.47;59.77;97327.50;4815693;28;102108;-73
2023/03/06 10:57:19;;;;;;;;;6.75;6.25;;;;;6.52;59.33;97322.34;4835696;28;102055;-74
2023/03/06 10:59:57;;;;;;;;;5.75;5.75;;;;;6.71;57.27;97316.13;4837409;28;104310;-74
2023/03/06 11:02:26;;;;;;;;;8.00;4.50;;;;;6.89;57.71;97313.63;4840990;28;108989;-74
2023/03/06 11:04:55;;;;;;;;;10.50;8.00;;;;;6.65;53.33;97317.81;4836558;28;102382;-74
2023/03/06 11:07:25;;;;;;;;;6.50;5.50;;;;;6.77;54.68;97314.47;4839842;28;102092;-74
2023/03/06 11:09:58;;;;;;;;;4.50;2.50;;;;;6.90;55.26;97315.28;4841589;28;102357;-73
2023/03/06 11:12:32;;;;;;;;;4.00;4.00;;;;;6.87;52.17;97315.72;4832149;28;108750;-74
2023/03/06 11:15:21;;;;;;;;;2.00;2.00;;;;;7.08;53.20;97303.88;4836130;28;102250;-73
2023/03/06 11:17:52;;;;;;;;;6.25;5.50;;;;;7.04;52.59;97311.53;4840991;28;101881;-73
2023/03/06 11:20:44;;;;;;;;;6.25;4.00;;;;;6.90;49.70;97309.09;4844744;28;102202;-73
2023/03/06 11:23:47;;;;;;;;;7.00;5.50;;;;;6.95;52.19;97301.22;4837397;28;108882;-73
2023/03/06 11:26:18;;;;;;;;;10.00;4.00;;;;;6.84;49.81;97304.56;4833265;28;102712;-73
2023/03/06 11:29:00;;;;;;;;;6.00;6.00;;;;;5.93;52.86;97296.28;4837220;28;102180;-73
2023/03/06 11:31:32;;;;;;;;;7.25;4.50;;;;;6.50;50.50;97297.56;4831200;28;102078;-73
2023/03/06 11:34:11;;;;;;;;;9.75;7.25;;;;;6.45;50.97;97298.19;4834614;28;104144;-73
2023/03/06 11:37:02;;;;;;;;;7.00;4.00;;;;;6.34;53.26;97285.41;4840896;28;102524;-74
2023/03/06 11:39:50;;;;;;;;;5.25;3.00;;;;;6.59;51.68;97285.56;4846008;28;102055;-74
2023/03/06 11:42:36;;;;;;;;;3.75;3.75;;;;;6.68;52.50;97289.69;4834961;28;103962;-73
2023/03/06 11:45:09;;;;;;;;;3.00;3.00;;;;;6.73;52.76;97276.47;4832757;28;108746;-74